sensor_id;sensor_type;location;lat;lon;timestamp;pressure;altitude;pressure_sealevel;temperature;humidity
24558;BME280;12726;49.148;8.582;2022-09-28T00:00:21;98644.53;;;10.00;90.89
24558;BME280;12726;49.148;8.582;2022-09-28T00:03:07;98641.25;;;9.98;91.21
24558;BME280;12726;49.148;8.582;2022-09-28T00:05:59;98629.94;;;9.74;92.15
24558;BME280;12726;49.148;8.582;2022-09-28T00:08:45;98630.03;;;9.79;93.12
24558;BME280;12726;49.148;8.582;2022-09-28T00:11:33;98632.88;;;9.95;92.80
24558;BME280;12726;49.148;8.582;2022-09-28T00:14:19;98633.38;;;9.92;92.84
24558;BME280;12726;49.148;8.582;2022-09-28T00:17:05;98635.69;;;9.83;93.19
24558;BME280;12726;49.148;8.582;2022-09-28T00:19:51;98619.56;;;9.83;94.06
24558;BME280;12726;49.148;8.582;2022-09-28T00:22:38;98616.66;;;9.85;94.06
24558;BME280;12726;49.148;8.582;2022-09-28T00:25:24;98616.59;;;9.79;94.71
24558;BME280;12726;49.148;8.582;2022-09-28T00:28:11;98613.00;;;9.74;94.88
24558;BME280;12726;49.148;8.582;2022-09-28T00:30:56;98607.38;;;9.75;95.55
24558;BME280;12726;49.148;8.582;2022-09-28T00:33:42;98607.16;;;9.77;96.75
24558;BME280;12726;49.148;8.582;2022-09-28T00:36:30;98580.84;;;9.57;97.98
24558;BME280;12726;49.148;8.582;2022-09-28T00:39:17;98586.03;;;9.64;99.03
24558;BME280;12726;49.148;8.582;2022-09-28T00:42:10;98573.16;;;9.66;100.00
24558;BME280;12726;49.148;8.582;2022-09-28T00:44:56;98573.09;;;9.61;100.00
24558;BME280;12726;49.148;8.582;2022-09-28T00:47:45;98585.09;;;9.53;100.00
24558;BME280;12726;49.148;8.582;2022-09-28T00:50:34;98572.84;;;9.62;100.00
24558;BME280;12726;49.148;8.582;2022-09-28T00:53:23;98559.41;;;9.62;100.00
24558;BME280;12726;49.148;8.582;2022-09-28T00:56:14;98559.28;;;9.52;100.00
24558;BME280;12726;49.148;8.582;2022-09-28T00:59:02;98556.53;;;9.47;100.00
24558;BME280;12726;49.148;8.582;2022-09-28T01:01:49;98564.72;;;9.57;100.00
24558;BME280;12726;49.148;8.582;2022-09-28T01:04:34;98545.94;;;9.57;100.00
24558;BME280;12726;49.148;8.582;2022-09-28T01:07:20;98538.41;;;9.59;100.00
24558;BME280;12726;49.148;8.582;2022-09-28T01:10:07;98548.19;;;9.65;100.00
24558;BME280;12726;49.148;8.582;2022-09-28T01:12:54;98530.97;;;9.66;100.00
24558;BME280;12726;49.148;8.582;2022-09-28T01:15:42;98517.44;;;9.56;100.00
24558;BME280;12726;49.148;8.582;2022-09-28T01:18:33;98524.72;;;9.61;100.00
24558;BME280;12726;49.148;8.582;2022-09-28T01:21:22;98524.94;;;9.54;100.00
24558;BME280;12726;49.148;8.582;2022-09-28T01:24:19;98509.63;;;9.55;100.00
24558;BME280;12726;49.148;8.582;2022-09-28T01:27:14;98495.09;;;9.51;100.00
24558;BME280;12726;49.148;8.582;2022-09-28T01:30:04;98492.41;;;9.51;100.00
24558;BME280;12726;49.148;8.582;2022-09-28T01:32:54;98485.44;;;9.55;100.00
24558;BME280;12726;49.148;8.582;2022-09-28T01:35:46;98496.50;;;9.58;100.00
24558;BME280;12726;49.148;8.582;2022-09-28T01:38:36;98484.69;;;9.59;100.00
24558;BME280;12726;49.148;8.582;2022-09-28T01:41:24;98461.09;;;9.39;100.00
24558;BME280;12726;49.148;8.582;2022-09-28T01:44:16;98466.03;;;9.48;100.00
24558;BME280;12726;49.148;8.582;2022-09-28T01:47:06;98470.38;;;9.54;100.00
24558;BME280;12726;49.148;8.582;2022-09-28T01:49:57;98464.78;;;9.55;100.00
24558;BME280;12726;49.148;8.582;2022-09-28T01:52:48;98466.41;;;9.56;100.00
24558;BME280;12726;49.148;8.582;2022-09-28T01:55:40;98456.75;;;9.60;100.00
24558;BME280;12726;49.148;8.582;2022-09-28T01:58:29;98457.34;;;9.67;100.00
24558;BME280;12726;49.148;8.582;2022-09-28T02:01:21;98446.38;;;9.69;100.00
24558;BME280;12726;49.148;8.582;2022-09-28T02:04:11;98443.78;;;9.79;100.00
24558;BME280;12726;49.148;8.582;2022-09-28T02:07:03;98435.75;;;9.84;100.00
24558;BME280;12726;49.148;8.582;2022-09-28T02:09:54;98448.75;;;9.92;100.00
24558;BME280;12726;49.148;8.582;2022-09-28T02:12:45;98447.75;;;10.03;100.00
24558;BME280;12726;49.148;8.582;2022-09-28T02:15:35;98443.22;;;10.09;100.00
24558;BME280;12726;49.148;8.582;2022-09-28T02:18:23;98453.97;;;10.09;100.00
24558;BME280;12726;49.148;8.582;2022-09-28T02:21:12;98450.84;;;10.17;100.00
24558;BME280;12726;49.148;8.582;2022-09-28T02:24:02;98449.78;;;10.18;100.00
24558;BME280;12726;49.148;8.582;2022-09-28T02:26:48;98452.66;;;10.11;100.00
24558;BME280;12726;49.148;8.582;2022-09-28T02:29:35;98445.97;;;10.14;100.00
24558;BME280;12726;49.148;8.582;2022-09-28T02:32:22;98460.97;;;10.10;100.00
24558;BME280;12726;49.148;8.582;2022-09-28T02:35:13;98454.75;;;10.04;100.00
24558;BME280;12726;49.148;8.582;2022-09-28T02:37:59;98456.13;;;10.07;100.00
24558;BME280;12726;49.148;8.582;2022-09-28T02:40:55;98460.94;;;10.05;100.00
24558;BME280;12726;49.148;8.582;2022-09-28T02:43:50;98466.63;;;10.08;100.00
24558;BME280;12726;49.148;8.582;2022-09-28T02:46:44;98449.69;;;10.08;100.00
24558;BME280;12726;49.148;8.582;2022-09-28T02:49:37;98441.03;;;10.01;100.00
24558;BME280;12726;49.148;8.582;2022-09-28T02:52:45;98447.47;;;10.00;100.00
24558;BME280;12726;49.148;8.582;2022-09-28T02:55:44;98439.94;;;10.02;100.00
24558;BME280;12726;49.148;8.582;2022-09-28T02:58:37;98442.63;;;10.02;100.00
24558;BME280;12726;49.148;8.582;2022-09-28T03:01:34;98437.78;;;9.99;100.00
24558;BME280;12726;49.148;8.582;2022-09-28T03:04:28;98430.78;;;9.98;100.00
24558;BME280;12726;49.148;8.582;2022-09-28T03:07:18;98428.03;;;9.93;100.00
24558;BME280;12726;49.148;8.582;2022-09-28T03:10:14;98429.69;;;9.99;100.00
24558;BME280;12726;49.148;8.582;2022-09-28T03:13:00;98423.75;;;9.97;100.00
24558;BME280;12726;49.148;8.582;2022-09-28T03:15:47;98412.16;;;9.91;100.00
24558;BME280;12726;49.148;8.582;2022-09-28T03:18:33;98419.44;;;9.96;100.00
24558;BME280;12726;49.148;8.582;2022-09-28T03:21:21;98413.78;;;9.92;100.00
24558;BME280;12726;49.148;8.582;2022-09-28T03:24:07;98416.47;;;9.92;100.00
24558;BME280;12726;49.148;8.582;2022-09-28T03:26:55;98421.84;;;9.92;100.00
24558;BME280;12726;49.148;8.582;2022-09-28T03:29:41;98437.16;;;9.92;100.00
24558;BME280;12726;49.148;8.582;2022-09-28T03:32:26;98448.69;;;9.87;100.00
24558;BME280;12726;49.148;8.582;2022-09-28T03:35:12;98442.97;;;9.78;100.00
24558;BME280;12726;49.148;8.582;2022-09-28T03:37:57;98449.69;;;9.81;100.00
24558;BME280;12726;49.148;8.582;2022-09-28T03:40:43;98446.25;;;9.86;100.00
24558;BME280;12726;49.148;8.582;2022-09-28T03:43:31;98447.00;;;9.81;100.00
24558;BME280;12726;49.148;8.582;2022-09-28T03:46:16;98445.34;;;9.75;100.00
24558;BME280;12726;49.148;8.582;2022-09-28T03:49:01;98437.75;;;9.67;100.00
24558;BME280;12726;49.148;8.582;2022-09-28T03:51:47;98437.03;;;9.76;100.00
24558;BME280;12726;49.148;8.582;2022-09-28T03:54:33;98435.72;;;9.79;100.00
24558;BME280;12726;49.148;8.582;2022-09-28T03:57:18;98435.06;;;9.67;100.00
24558;BME280;12726;49.148;8.582;2022-09-28T04:00:06;98433.94;;;9.63;100.00
24558;BME280;12726;49.148;8.582;2022-09-28T04:02:52;98416.47;;;9.60;100.00
24558;BME280;12726;49.148;8.582;2022-09-28T04:05:38;98432.69;;;9.70;100.00
24558;BME280;12726;49.148;8.582;2022-09-28T04:08:24;98434.31;;;9.71;100.00
24558;BME280;12726;49.148;8.582;2022-09-28T04:11:09;98439.63;;;9.66;100.00
24558;BME280;12726;49.148;8.582;2022-09-28T04:13:55;98429.16;;;9.65;100.00
24558;BME280;12726;49.148;8.582;2022-09-28T04:16:41;98430.78;;;9.66;100.00
24558;BME280;12726;49.148;8.582;2022-09-28T04:19:27;98435.06;;;9.67;100.00
24558;BME280;12726;49.148;8.582;2022-09-28T04:22:12;98436.69;;;9.68;100.00
24558;BME280;12726;49.148;8.582;2022-09-28T04:25:01;98420.47;;;9.58;100.00
24558;BME280;12726;49.148;8.582;2022-09-28T04:27:48;98437.13;;;9.60;100.00
24558;BME280;12726;49.148;8.582;2022-09-28T04:30:54;98425.06;;;9.62;100.00
24558;BME280;12726;49.148;8.582;2022-09-28T04:33:40;98441.69;;;9.59;100.00
24558;BME280;12726;49.148;8.582;2022-09-28T04:36:26;98437.34;;;9.53;100.00
24558;BME280;12726;49.148;8.582;2022-09-28T04:39:12;98437.91;;;9.55;100.00
24558;BME280;12726;49.148;8.582;2022-09-28T04:41:57;98440.59;;;9.55;100.00
24558;BME280;12726;49.148;8.582;2022-09-28T04:44:45;98453.97;;;9.50;100.00
24558;BME280;12726;49.148;8.582;2022-09-28T04:47:31;98450.47;;;9.50;100.00
24558;BME280;12726;49.148;8.582;2022-09-28T04:50:18;98447.19;;;9.42;100.00
24558;BME280;12726;49.148;8.582;2022-09-28T04:53:03;98459.19;;;9.35;100.00
24558;BME280;12726;49.148;8.582;2022-09-28T04:55:56;98462.34;;;9.32;100.00
24558;BME280;12726;49.148;8.582;2022-09-28T04:58:42;98463.19;;;9.32;100.00
24558;BME280;12726;49.148;8.582;2022-09-28T05:01:28;98453.84;;;9.40;100.00
24558;BME280;12726;49.148;8.582;2022-09-28T05:04:14;98452.81;;;9.41;100.00
24558;BME280;12726;49.148;8.582;2022-09-28T05:07:01;98456.53;;;9.40;100.00
24558;BME280;12726;49.148;8.582;2022-09-28T05:09:47;98454.09;;;9.38;100.00
24558;BME280;12726;49.148;8.582;2022-09-28T05:12:33;98457.41;;;9.46;100.00
24558;BME280;12726;49.148;8.582;2022-09-28T05:15:19;98451.41;;;9.38;100.00
24558;BME280;12726;49.148;8.582;2022-09-28T05:18:05;98452.75;;;9.36;100.00
24558;BME280;12726;49.148;8.582;2022-09-28T05:20:50;98449.22;;;9.30;100.00
24558;BME280;12726;49.148;8.582;2022-09-28T05:23:37;98451.63;;;9.32;100.00
24558;BME280;12726;49.148;8.582;2022-09-28T05:26:23;98455.69;;;9.34;100.00
24558;BME280;12726;49.148;8.582;2022-09-28T05:29:08;98452.75;;;9.36;100.00
24558;BME280;12726;49.148;8.582;2022-09-28T05:31:54;98459.13;;;9.30;100.00
24558;BME280;12726;49.148;8.582;2022-09-28T05:34:39;98464.81;;;9.33;100.00
24558;BME280;12726;49.148;8.582;2022-09-28T05:37:24;98464.81;;;9.33;100.00
24558;BME280;12726;49.148;8.582;2022-09-28T05:40:12;98472.81;;;9.28;100.00
24558;BME280;12726;49.148;8.582;2022-09-28T05:42:58;98478.28;;;9.38;100.00
24558;BME280;12726;49.148;8.582;2022-09-28T05:45:45;98480.44;;;9.36;100.00
24558;BME280;12726;49.148;8.582;2022-09-28T05:48:30;98483.59;;;9.33;100.00
24558;BME280;12726;49.148;8.582;2022-09-28T05:51:16;98484.97;;;9.36;100.00
24558;BME280;12726;49.148;8.582;2022-09-28T05:54:01;98480.16;;;9.38;100.00
24558;BME280;12726;49.148;8.582;2022-09-28T05:56:48;98483.84;;;9.32;100.00
24558;BME280;12726;49.148;8.582;2022-09-28T05:59:34;98487.44;;;9.37;100.00
24558;BME280;12726;49.148;8.582;2022-09-28T06:02:20;98492.22;;;9.35;100.00
24558;BME280;12726;49.148;8.582;2022-09-28T06:05:05;98489.78;;;9.34;100.00
24558;BME280;12726;49.148;8.582;2022-09-28T06:07:51;98487.66;;;9.36;100.00
24558;BME280;12726;49.148;8.582;2022-09-28T06:10:37;98490.09;;;9.37;100.00
24558;BME280;12726;49.148;8.582;2022-09-28T06:13:24;98489.84;;;9.39;100.00
24558;BME280;12726;49.148;8.582;2022-09-28T06:16:13;98483.97;;;9.42;100.00
24558;BME280;12726;49.148;8.582;2022-09-28T06:18:59;98490.72;;;9.45;100.00
24558;BME280;12726;49.148;8.582;2022-09-28T06:21:46;98506.66;;;9.51;100.00
24558;BME280;12726;49.148;8.582;2022-09-28T06:24:31;98501.28;;;9.51;100.00
24558;BME280;12726;49.148;8.582;2022-09-28T06:27:17;98513.94;;;9.56;100.00
24558;BME280;12726;49.148;8.582;2022-09-28T06:30:05;98510.84;;;9.69;100.00
24558;BME280;12726;49.148;8.582;2022-09-28T06:32:52;98512.28;;;9.76;100.00
24558;BME280;12726;49.148;8.582;2022-09-28T06:35:38;98519.13;;;9.89;100.00
24558;BME280;12726;49.148;8.582;2022-09-28T06:38:24;98524.91;;;10.03;100.00
24558;BME280;12726;49.148;8.582;2022-09-28T06:41:09;98536.31;;;10.15;100.00
24558;BME280;12726;49.148;8.582;2022-09-28T06:43:55;98533.47;;;10.27;100.00
24558;BME280;12726;49.148;8.582;2022-09-28T06:46:42;98530.59;;;10.33;100.00
24558;BME280;12726;49.148;8.582;2022-09-28T06:49:27;98534.22;;;10.49;100.00
24558;BME280;12726;49.148;8.582;2022-09-28T06:52:13;98542.63;;;10.57;100.00
24558;BME280;12726;49.148;8.582;2022-09-28T06:54:58;98546.84;;;10.85;100.00
24558;BME280;12726;49.148;8.582;2022-09-28T06:57:43;98556.69;;;11.12;100.00
24558;BME280;12726;49.148;8.582;2022-09-28T07:00:31;98546.56;;;11.29;100.00
24558;BME280;12726;49.148;8.582;2022-09-28T07:03:20;98551.16;;;11.28;100.00
24558;BME280;12726;49.148;8.582;2022-09-28T07:06:09;98561.09;;;11.28;100.00
24558;BME280;12726;49.148;8.582;2022-09-28T07:08:55;98557.84;;;11.26;100.00
24558;BME280;12726;49.148;8.582;2022-09-28T07:11:43;98558.25;;;11.55;100.00
24558;BME280;12726;49.148;8.582;2022-09-28T07:14:28;98563.41;;;11.61;97.85
24558;BME280;12726;49.148;8.582;2022-09-28T07:17:14;98566.41;;;11.65;95.52
24558;BME280;12726;49.148;8.582;2022-09-28T07:20:01;98562.28;;;11.52;95.28
24558;BME280;12726;49.148;8.582;2022-09-28T07:22:51;98577.34;;;11.43;94.55
24558;BME280;12726;49.148;8.582;2022-09-28T07:25:37;98582.91;;;11.26;95.78
24558;BME280;12726;49.148;8.582;2022-09-28T07:28:28;98589.28;;;11.10;96.11
24558;BME280;12726;49.148;8.582;2022-09-28T07:31:13;98591.94;;;11.05;95.89
24558;BME280;12726;49.148;8.582;2022-09-28T07:33:59;98591.88;;;11.42;94.20
24558;BME280;12726;49.148;8.582;2022-09-28T07:36:47;98592.69;;;11.43;94.46
24558;BME280;12726;49.148;8.582;2022-09-28T07:39:32;98606.50;;;11.56;95.13
24558;BME280;12726;49.148;8.582;2022-09-28T07:42:38;98615.94;;;12.26;92.46
24558;BME280;12726;49.148;8.582;2022-09-28T07:45:24;98611.47;;;13.82;87.41
24558;BME280;12726;49.148;8.582;2022-09-28T07:48:09;98606.97;;;14.95;76.68
24558;BME280;12726;49.148;8.582;2022-09-28T07:50:55;98616.06;;;15.38;71.86
24558;BME280;12726;49.148;8.582;2022-09-28T07:53:44;98618.66;;;15.48;71.36
24558;BME280;12726;49.148;8.582;2022-09-28T07:56:30;98627.34;;;16.16;69.20
24558;BME280;12726;49.148;8.582;2022-09-28T07:59:17;98624.00;;;16.43;68.78
24558;BME280;12726;49.148;8.582;2022-09-28T08:02:03;98639.44;;;16.66;66.60
24558;BME280;12726;49.148;8.582;2022-09-28T08:04:48;98641.03;;;16.06;65.93
24558;BME280;12726;49.148;8.582;2022-09-28T08:07:34;98636.06;;;15.42;67.00
24558;BME280;12726;49.148;8.582;2022-09-28T08:10:22;98649.03;;;14.87;69.58
24558;BME280;12726;49.148;8.582;2022-09-28T08:13:08;98651.53;;;14.34;72.03
24558;BME280;12726;49.148;8.582;2022-09-28T08:15:54;98633.53;;;14.59;72.03
24558;BME280;12726;49.148;8.582;2022-09-28T08:18:39;98650.81;;;15.02;71.57
24558;BME280;12726;49.148;8.582;2022-09-28T08:21:24;98652.22;;;15.81;66.95
24558;BME280;12726;49.148;8.582;2022-09-28T08:24:28;98644.66;;;15.54;66.67
24558;BME280;12726;49.148;8.582;2022-09-28T08:27:15;98658.78;;;14.88;67.55
24558;BME280;12726;49.148;8.582;2022-09-28T08:30:01;98661.81;;;14.37;70.81
24558;BME280;12726;49.148;8.582;2022-09-28T08:32:47;98661.69;;;14.08;71.37
24558;BME280;12726;49.148;8.582;2022-09-28T08:35:32;98666.84;;;14.00;72.34
24558;BME280;12726;49.148;8.582;2022-09-28T08:38:18;98678.41;;;14.21;70.85
24558;BME280;12726;49.148;8.582;2022-09-28T08:41:15;98667.69;;;14.55;70.96
24558;BME280;12726;49.148;8.582;2022-09-28T08:44:12;98667.63;;;14.65;68.37
24558;BME280;12726;49.148;8.582;2022-09-28T08:47:02;98664.03;;;14.74;68.23
24558;BME280;12726;49.148;8.582;2022-09-28T08:49:50;98671.41;;;14.69;67.32
24558;BME280;12726;49.148;8.582;2022-09-28T08:52:38;98670.50;;;14.34;68.49
24558;BME280;12726;49.148;8.582;2022-09-28T08:55:27;98675.56;;;13.87;69.24
24558;BME280;12726;49.148;8.582;2022-09-28T08:58:19;98681.66;;;13.13;72.35
24558;BME280;12726;49.148;8.582;2022-09-28T09:01:11;98691.84;;;12.55;73.57
24558;BME280;12726;49.148;8.582;2022-09-28T09:03:59;98689.88;;;12.25;76.53
24558;BME280;12726;49.148;8.582;2022-09-28T09:10:15;98690.97;;;11.72;77.17
24558;BME280;12726;49.148;8.582;2022-09-28T09:13:21;98694.53;;;11.77;77.76
24558;BME280;12726;49.148;8.582;2022-09-28T09:16:19;98699.44;;;13.09;77.41
24558;BME280;12726;49.148;8.582;2022-09-28T09:19:14;98692.66;;;14.91;69.42
24558;BME280;12726;49.148;8.582;2022-09-28T09:22:11;98695.53;;;15.91;62.57
24558;BME280;12726;49.148;8.582;2022-09-28T09:25:06;98692.41;;;15.79;60.99
24558;BME280;12726;49.148;8.582;2022-09-28T09:28:15;98689.47;;;15.75;59.51
24558;BME280;12726;49.148;8.582;2022-09-28T09:31:08;98696.38;;;15.86;58.38
24558;BME280;12726;49.148;8.582;2022-09-28T09:34:26;98699.25;;;15.71;61.81
24558;BME280;12726;49.148;8.582;2022-09-28T09:37:27;98703.25;;;16.26;60.34
24558;BME280;12726;49.148;8.582;2022-09-28T09:40:27;98703.72;;;16.33;57.01
24558;BME280;12726;49.148;8.582;2022-09-28T09:43:33;98703.19;;;16.31;58.30
24558;BME280;12726;49.148;8.582;2022-09-28T09:46:31;98698.47;;;15.94;56.94
24558;BME280;12726;49.148;8.582;2022-09-28T09:49:22;98697.50;;;15.56;61.14
24558;BME280;12726;49.148;8.582;2022-09-28T09:52:13;98698.44;;;15.42;61.09
24558;BME280;12726;49.148;8.582;2022-09-28T09:55:06;98706.34;;;14.70;62.28
24558;BME280;12726;49.148;8.582;2022-09-28T09:58:03;98710.16;;;13.95;65.23
24558;BME280;12726;49.148;8.582;2022-09-28T10:00:54;98702.41;;;15.25;64.23
24558;BME280;12726;49.148;8.582;2022-09-28T10:03:46;98705.25;;;16.39;60.25
24558;BME280;12726;49.148;8.582;2022-09-28T10:06:35;98699.22;;;15.47;59.94
24558;BME280;12726;49.148;8.582;2022-09-28T10:09:23;98704.63;;;14.79;60.80
24558;BME280;12726;49.148;8.582;2022-09-28T10:12:15;98704.91;;;14.24;62.02
24558;BME280;12726;49.148;8.582;2022-09-28T10:15:04;98705.88;;;14.92;63.07
24558;BME280;12726;49.148;8.582;2022-09-28T10:17:51;98702.56;;;15.68;59.16
24558;BME280;12726;49.148;8.582;2022-09-28T10:20:40;98695.47;;;16.62;59.68
24558;BME280;12726;49.148;8.582;2022-09-28T10:23:31;98691.06;;;16.24;58.71
24558;BME280;12726;49.148;8.582;2022-09-28T10:26:22;98691.31;;;15.80;57.62
24558;BME280;12726;49.148;8.582;2022-09-28T10:29:12;98698.72;;;16.83;56.56
24558;BME280;12726;49.148;8.582;2022-09-28T10:31:59;98702.72;;;16.24;56.27
24558;BME280;12726;49.148;8.582;2022-09-28T10:34:46;98700.31;;;15.75;59.12
24558;BME280;12726;49.148;8.582;2022-09-28T10:37:31;98702.00;;;15.37;56.69
24558;BME280;12726;49.148;8.582;2022-09-28T10:40:38;98706.75;;;14.87;59.58
24558;BME280;12726;49.148;8.582;2022-09-28T10:43:28;98710.75;;;14.51;60.32
24558;BME280;12726;49.148;8.582;2022-09-28T10:46:20;98708.66;;;14.33;61.39
24558;BME280;12726;49.148;8.582;2022-09-28T10:49:07;98714.81;;;13.74;63.54
24558;BME280;12726;49.148;8.582;2022-09-28T10:51:58;98718.38;;;13.44;64.49
24558;BME280;12726;49.148;8.582;2022-09-28T10:54:51;98711.34;;;13.38;66.60
24558;BME280;12726;49.148;8.582;2022-09-28T10:57:38;98711.66;;;13.21;67.65
24558;BME280;12726;49.148;8.582;2022-09-28T11:00:33;98706.50;;;13.35;66.42
24558;BME280;12726;49.148;8.582;2022-09-28T11:03:23;98710.25;;;13.59;65.49
24558;BME280;12726;49.148;8.582;2022-09-28T11:06:09;98703.75;;;13.65;62.99
24558;BME280;12726;49.148;8.582;2022-09-28T11:08:56;98709.38;;;13.79;65.32
24558;BME280;12726;49.148;8.582;2022-09-28T11:11:42;98706.97;;;13.72;62.45
24558;BME280;12726;49.148;8.582;2022-09-28T11:14:33;98703.75;;;13.65;62.78
24558;BME280;12726;49.148;8.582;2022-09-28T11:17:25;98697.81;;;13.58;63.26
24558;BME280;12726;49.148;8.582;2022-09-28T11:20:32;98696.69;;;13.75;64.51
24558;BME280;12726;49.148;8.582;2022-09-28T11:23:21;98698.25;;;13.96;67.14
24558;BME280;12726;49.148;8.582;2022-09-28T11:26:11;98697.41;;;14.65;65.48
24558;BME280;12726;49.148;8.582;2022-09-28T11:28:57;98701.16;;;15.71;61.70
24558;BME280;12726;49.148;8.582;2022-09-28T11:31:45;98691.38;;;15.98;60.38
24558;BME280;12726;49.148;8.582;2022-09-28T11:34:33;98690.94;;;16.34;57.91
24558;BME280;12726;49.148;8.582;2022-09-28T11:37:59;98686.97;;;15.55;60.55
24558;BME280;12726;49.148;8.582;2022-09-28T11:40:56;98676.47;;;16.20;62.54
24558;BME280;12726;49.148;8.582;2022-09-28T11:43:56;98692.75;;;16.62;59.36
24558;BME280;12726;49.148;8.582;2022-09-28T11:46:59;98691.50;;;16.73;59.76
24558;BME280;12726;49.148;8.582;2022-09-28T11:49:50;98689.75;;;17.15;59.39
24558;BME280;12726;49.148;8.582;2022-09-28T11:52:42;98684.97;;;16.74;57.59
24558;BME280;12726;49.148;8.582;2022-09-28T11:55:33;98691.25;;;15.61;60.72
24558;BME280;12726;49.148;8.582;2022-09-28T11:58:26;98688.97;;;15.39;62.22
24558;BME280;12726;49.148;8.582;2022-09-28T12:01:21;98696.22;;;15.20;61.52
24558;BME280;12726;49.148;8.582;2022-09-28T12:04:15;98689.78;;;15.40;63.15
24558;BME280;12726;49.148;8.582;2022-09-28T12:07:07;98687.59;;;15.42;62.35
24558;BME280;12726;49.148;8.582;2022-09-28T12:10:02;98672.13;;;15.42;61.50
24558;BME280;12726;49.148;8.582;2022-09-28T12:12:58;98665.38;;;16.16;60.22
24558;BME280;12726;49.148;8.582;2022-09-28T12:15:48;98665.53;;;17.00;59.39
24558;BME280;12726;49.148;8.582;2022-09-28T12:18:40;98668.88;;;17.43;56.36
24558;BME280;12726;49.148;8.582;2022-09-28T12:21:37;98681.56;;;16.64;57.97
24558;BME280;12726;49.148;8.582;2022-09-28T12:24:29;98672.66;;;15.97;60.02
24558;BME280;12726;49.148;8.582;2022-09-28T12:27:20;98676.47;;;15.43;60.23
24558;BME280;12726;49.148;8.582;2022-09-28T12:30:13;98676.66;;;14.89;61.58
24558;BME280;12726;49.148;8.582;2022-09-28T12:33:03;98683.03;;;14.69;63.30
24558;BME280;12726;49.148;8.582;2022-09-28T12:36:06;98664.25;;;14.39;64.88
24558;BME280;12726;49.148;8.582;2022-09-28T12:39:11;98675.91;;;14.39;64.07
24558;BME280;12726;49.148;8.582;2022-09-28T12:42:08;98683.50;;;14.81;62.47
24558;BME280;12726;49.148;8.582;2022-09-28T12:45:10;98675.84;;;15.22;58.56
24558;BME280;12726;49.148;8.582;2022-09-28T12:48:10;98687.59;;;15.42;56.85
24558;BME280;12726;49.148;8.582;2022-09-28T12:51:06;98676.03;;;15.31;57.52
24558;BME280;12726;49.148;8.582;2022-09-28T12:54:02;98678.19;;;15.00;58.96
24558;BME280;12726;49.148;8.582;2022-09-28T12:56:55;98672.69;;;15.10;58.99
24558;BME280;12726;49.148;8.582;2022-09-28T12:59:52;98664.69;;;14.95;60.49
24558;BME280;12726;49.148;8.582;2022-09-28T13:03:18;98666.88;;;14.93;59.71
24558;BME280;12726;49.148;8.582;2022-09-28T13:09:19;98653.94;;;14.36;61.31
24558;BME280;12726;49.148;8.582;2022-09-28T13:12:29;98674.88;;;14.25;61.36
24558;BME280;12726;49.148;8.582;2022-09-28T13:18:37;98675.31;;;14.86;62.84
24558;BME280;12726;49.148;8.582;2022-09-28T13:21:28;98678.56;;;15.51;60.90
24558;BME280;12726;49.148;8.582;2022-09-28T13:24:21;98671.50;;;15.79;59.68
24558;BME280;12726;49.148;8.582;2022-09-28T13:27:13;98670.28;;;15.66;60.27
24558;BME280;12726;49.148;8.582;2022-09-28T13:30:03;98670.00;;;15.39;59.61
24558;BME280;12726;49.148;8.582;2022-09-28T13:32:52;98669.31;;;15.23;61.02
24558;BME280;12726;49.148;8.582;2022-09-28T13:35:41;98662.75;;;15.01;61.80
24558;BME280;12726;49.148;8.582;2022-09-28T13:38:29;98656.47;;;14.71;61.17
24558;BME280;12726;49.148;8.582;2022-09-28T13:41:17;98663.44;;;14.38;61.12
24558;BME280;12726;49.148;8.582;2022-09-28T13:44:26;98678.41;;;14.21;63.39
24558;BME280;12726;49.148;8.582;2022-09-28T13:47:33;98681.47;;;14.04;66.72
24558;BME280;12726;49.148;8.582;2022-09-28T13:50:31;98675.25;;;13.93;70.17
24558;BME280;12726;49.148;8.582;2022-09-28T13:53:26;98675.25;;;13.93;72.21
24558;BME280;12726;49.148;8.582;2022-09-28T13:56:26;98676.44;;;14.41;71.39
24558;BME280;12726;49.148;8.582;2022-09-28T13:59:16;98676.41;;;14.46;66.81
24558;BME280;12726;49.148;8.582;2022-09-28T14:02:11;98680.00;;;14.27;66.86
24558;BME280;12726;49.148;8.582;2022-09-28T14:05:04;98672.56;;;13.93;67.27
24558;BME280;12726;49.148;8.582;2022-09-28T14:07:55;98680.69;;;13.88;67.70
24558;BME280;12726;49.148;8.582;2022-09-28T14:10:48;98675.34;;;13.78;69.72
24558;BME280;12726;49.148;8.582;2022-09-28T14:13:59;98676.38;;;13.92;68.77
24558;BME280;12726;49.148;8.582;2022-09-28T14:16:44;98679.63;;;13.89;66.41
24558;BME280;12726;49.148;8.582;2022-09-28T14:19:32;98679.06;;;13.87;66.88
24558;BME280;12726;49.148;8.582;2022-09-28T14:22:25;98672.81;;;13.97;67.23
24558;BME280;12726;49.148;8.582;2022-09-28T14:25:21;98680.94;;;13.97;65.06
24558;BME280;12726;49.148;8.582;2022-09-28T14:28:36;98691.66;;;14.22;65.36
24558;BME280;12726;49.148;8.582;2022-09-28T14:31:26;98692.94;;;14.45;64.45
24558;BME280;12726;49.148;8.582;2022-09-28T14:34:25;98693.50;;;14.42;60.77
24558;BME280;12726;49.148;8.582;2022-09-28T14:37:20;98694.63;;;14.26;61.19
24558;BME280;12726;49.148;8.582;2022-09-28T14:40:28;98694.16;;;14.14;60.16
24558;BME280;12726;49.148;8.582;2022-09-28T14:46:39;98693.38;;;13.93;62.67
24558;BME280;12726;49.148;8.582;2022-09-28T14:49:58;98703.44;;;13.92;62.79
24558;BME280;12726;49.148;8.582;2022-09-28T14:52:50;98700.41;;;13.94;64.63
24558;BME280;12726;49.148;8.582;2022-09-28T14:55:43;98702.00;;;14.10;62.24
24558;BME280;12726;49.148;8.582;2022-09-28T14:58:35;98704.06;;;14.28;63.39
24558;BME280;12726;49.148;8.582;2022-09-28T15:01:22;98703.72;;;14.55;62.01
24558;BME280;12726;49.148;8.582;2022-09-28T15:04:11;98696.28;;;14.71;60.31
24558;BME280;12726;49.148;8.582;2022-09-28T15:06:57;98713.50;;;14.90;60.19
24558;BME280;12726;49.148;8.582;2022-09-28T15:09:46;98712.91;;;14.98;58.98
24558;BME280;12726;49.148;8.582;2022-09-28T15:12:33;98713.00;;;14.83;58.01
24558;BME280;12726;49.148;8.582;2022-09-28T15:15:26;98715.59;;;14.59;59.08